createdAt,value
2022-12-01T00:00:39.153Z,5.20
2022-12-01T00:15:22.795Z,5.30
2022-12-01T00:30:23.177Z,5.15
2022-12-01T00:45:23.022Z,5.18
2022-12-01T01:00:28.475Z,5.18
2022-12-01T01:15:23.652Z,5.15
2022-12-01T01:30:24.385Z,5.40
2022-12-01T01:45:23.101Z,5.05
2022-12-01T02:00:24.691Z,5.10
2022-12-01T02:15:23.432Z,5.10
2022-12-01T02:30:23.414Z,4.90
2022-12-01T02:45:23.330Z,5.07
2022-12-01T03:00:23.890Z,4.68
2022-12-01T03:15:23.574Z,4.90
2022-12-01T03:30:24.764Z,4.65
2022-12-01T03:45:23.379Z,4.62
2022-12-01T04:00:23.834Z,4.40
2022-12-01T04:15:23.440Z,4.35
2022-12-01T04:30:23.449Z,4.53
2022-12-01T04:45:23.578Z,4.45
2022-12-01T05:00:44.801Z,4.63
2022-12-01T05:15:23.619Z,4.35
2022-12-01T05:30:28.306Z,4.53
2022-12-01T05:45:23.628Z,4.50
2022-12-01T06:00:42.285Z,4.45
2022-12-01T06:15:23.469Z,4.50
2022-12-01T06:30:29.848Z,4.12
2022-12-01T06:45:23.555Z,4.18
2022-12-01T07:00:23.871Z,4.20
2022-12-01T07:15:23.621Z,4.10
2022-12-01T07:30:28.220Z,4.23
2022-12-01T07:45:23.753Z,3.95
2022-12-01T08:00:23.881Z,4.10
2022-12-01T08:15:23.703Z,4.05
2022-12-01T08:30:24.158Z,4.12
2022-12-01T08:45:23.684Z,4.37
2022-12-01T09:00:31.916Z,3.70
2022-12-01T09:15:23.904Z,4.47
2022-12-01T09:30:23.933Z,4.22
2022-12-01T09:45:24.522Z,4.28
2022-12-01T10:00:26.430Z,4.20
2022-12-01T10:15:33.370Z,4.15
2022-12-01T10:30:33.370Z,4.33
2022-12-01T10:45:33.170Z,4.25
2022-12-01T11:00:58.574Z,4.12
2022-12-01T11:15:23.272Z,4.20
2022-12-01T11:30:24.816Z,4.32
2022-12-01T11:45:23.454Z,4.22
2022-12-01T12:00:25.410Z,4.28
2022-12-01T12:15:23.337Z,4.30
2022-12-01T12:30:27.432Z,4.32
2022-12-01T12:45:23.322Z,4.50
2022-12-01T13:00:41.052Z,4.30
2022-12-01T13:15:23.209Z,4.32
2022-12-01T13:30:23.430Z,4.50
2022-12-01T13:45:23.260Z,4.38
2022-12-01T14:00:33.673Z,4.38
2022-12-01T14:15:23.262Z,4.45
2022-12-01T14:30:23.785Z,4.47
2022-12-01T14:45:23.440Z,4.63
2022-12-01T15:00:36.984Z,4.47
2022-12-01T15:15:24.424Z,4.38
2022-12-01T15:30:32.189Z,4.40
2022-12-01T15:45:23.572Z,4.50
2022-12-01T16:00:23.465Z,4.53
2022-12-01T16:15:23.494Z,4.50
2022-12-01T16:30:23.868Z,4.67
2022-12-01T16:45:23.772Z,4.40
2022-12-01T17:00:26.604Z,4.43
2022-12-01T17:15:23.892Z,4.40
2022-12-01T17:30:23.593Z,4.57
2022-12-01T17:45:23.645Z,4.80
2022-12-01T18:00:30.990Z,4.73
2022-12-01T18:15:29.264Z,4.53
2022-12-01T18:30:31.365Z,4.45
2022-12-01T18:45:23.758Z,4.45
2022-12-01T19:00:36.070Z,4.52
2022-12-01T19:15:23.672Z,4.60
2022-12-01T19:30:25.354Z,4.47
2022-12-01T19:45:23.706Z,4.57
2022-12-01T20:00:31.146Z,4.63
2022-12-01T20:15:23.819Z,4.45
2022-12-01T20:30:24.831Z,4.47
2022-12-01T20:45:23.964Z,4.45
2022-12-01T21:00:30.418Z,4.52
2022-12-01T21:15:23.578Z,4.57
2022-12-01T21:30:23.674Z,4.53
2022-12-01T21:45:33.922Z,4.52
2022-12-01T22:00:33.701Z,4.70
2022-12-01T22:15:22.854Z,4.60
2022-12-01T22:30:23.129Z,4.55
2022-12-01T22:45:23.331Z,4.45
2022-12-01T23:03:06.580Z,3.90
2022-12-01T23:15:23.754Z,4.35
2022-12-01T23:30:23.489Z,4.28
2022-12-01T23:45:23.321Z,4.22
